Share

Moundsville, WV (26041)

Crawford Heights (KOHMARTI3) Elev 1109 ft | 40.09 °N, 80.75 °W | Change Station

Current weather conditions updated 13 minutes ago

Clear
Clear
62.4 °F
Feels Like 62.4 °F
N
5.3
Wind Variable Wind from ESE
Sunrise 6:39 AM
Sunset 8:05 PM
Moon Waning Gibbous

Tomorrow is forecast to be Warmer than today.

Pressure 30.28 in
Visibility 10.0 miles
Clouds Clear
Dew Point 27 °F
Humidity 26%
Rainfall 0.00 in
Snow Depth Not available.
UV 2 out of 16
Pollen 10.90 out of 12
Air Quality Not available.
Flu Activity Sporadic
METAR KHLG 192153Z 08007KT 10SM CLR 16/M06 A3027 RMK AO2 SLP254 T01611056

More Conditions Fewer Conditions

Pressure 30.28 in
Visibility 10.0 miles
Clouds Clear
Dew Point 27 °F
Humidity 26%
Rainfall 0.00 in
Snow Depth Not available.
UV 2 out of 16
Pollen 10.90 out of 12
Air Quality Not available.
Flu Activity Sporadic
METAR KHLG 192153Z 08007KT 10SM CLR 16/M06 A3027 RMK AO2 SLP254 T01611056

More Conditions Fewer Conditions

10-Day Weather Forecast

Almanac

Astronomy

Apr. 19, 2014 Rise Set
Actual Time 6:39 AM EDT 8:05 PM EDT
Civil Twilight 6:11 AM EDT 8:33 PM EDT
Nautical Twilight 5:37 AM EDT 9:07 PM EDT
Astronomical Twilight 5:01 AM EDT 9:43 PM EDT
Moon No Moon Rise 9:56 AM EDT
Length of Visible Light 14h 22m
Length of Day
13h 26m
Tomorrow will be 2m 27s longer.
Waning Gibbous, 76% of the Moon is Illuminated
Today
Waning Gibbous
Apr 22
Last Quarter
Apr 29
New
May 6
First Quarter
May 14
Full

Today's Extremes

State Highs State Lows

Community

  • Happy Easter WU friends!!!!
    Happy Easter WU friends!!!!
  • Skirting the Horizon
    Skirting the Horizon
  • Piriapolis
    Piriapolis
  • A Glorious Morning
    A Glorious Morning
  • Tender Rays Of Hope
    Tender Rays Of Hope

WunderPhotos

Upload Photos

1,702,929 photos uploaded!

WunderBlogs® & News

Nearby

Snow Depth

Station Depth Elevation
No new snow has been reported.

Coastal Water Temperatures

Place Temperature
No Stations Reporting

Earthquake Activity

City Distance Mag. Time & Date
No recent earthquake activity has been reported nearby.
Minimum magnitude displayed is 2.5.

Nearby Weather Stations

Station Location Temp. Dew Point Humidity Wind Precip. Elev Updated Type
Crawford Heights, Martins Ferry, OH 62.4 °F 27 °F 26% ESE  at  5.3 mph - / hr 1109 ft 5:58 PM EDT Normal
Whitmar Hills, Wheeling, WV 62.5 °F 32 °F 31% NNE  at  0.0 mph 0.00 in / hr 1060 ft 6:10 PM EDT Normal
West Alexander, West Alexander, PA 63.7 °F 30 °F 28% SSW  at  1.1 mph - / hr 1191 ft 6:01 PM EDT Normal

Show More Stations Show Fewer Stations

What do you think?

We're not finished. Please let us know what you like, what you don't like, and what you are still missing.